aviador You're here:

LDRI Decoded Metar

RIJEKA in CROATIA
Report Time2017-08-18 14:00:00
UTC Time2017-08-18 14:19:18
Flight Rules vfr VFR
Wind270° at 05 kt
W.Decomp.*RWY 32: 3.0 kt HW 4 kt LCW
W.Rank270° ranks 9
Current wind is above 270° avg. (4.7)
Visibility9999 m
Phenomena:N/A
Clouds:N/A
Expected CloudBase > 9,600 ft AGL from Temp-Dew spread
CeilingNone
Temp34°C (ISA +20)
Dew Point10°C (23% RH)
Heat Index32.3°C
AAT32.2°C
QNH1015 hPa
Density Alt2,602 ft
Elevation279 ft
Report Wrong Elevation
Raw Report
LDRI 181400Z 27005KT 250V330 CAVOK 34/10 Q1015=

Extra information for LDRI:More info

Metar Taf Metar & Taf Last 4 Metars F.Rules Stats Wind Profile Meteogram Temp Stats Airport Information Weather charts Add Link Nearby VenuesMetar ALERT Operation Metar Decoded Social comments